createdAt,value
2022-10-22T00:00:48.911Z,8.40
2022-10-22T00:07:00.810Z,8.40
2022-10-22T00:12:17.997Z,8.30
2022-10-22T00:17:23.537Z,8.40
2022-10-22T00:22:27.129Z,8.50
2022-10-22T00:27:31.131Z,8.50
2022-10-22T00:32:36.845Z,8.60
2022-10-22T00:37:48.603Z,8.60
2022-10-22T00:43:05.816Z,8.60
2022-10-22T02:15:31.878Z,9.00
2022-10-22T03:44:31.295Z,9.50
2022-10-22T03:49:34.989Z,9.40
2022-10-22T03:59:45.473Z,9.50
2022-10-22T04:04:54.614Z,9.50
2022-10-22T04:09:57.976Z,9.50
2022-10-22T05:36:05.496Z,9.80
2022-10-22T05:41:18.052Z,9.90
2022-10-22T05:46:47.305Z,9.90
2022-10-22T05:51:55.804Z,10.00
2022-10-22T05:57:11.574Z,9.90
2022-10-22T06:02:40.829Z,9.90
2022-10-22T06:07:44.235Z,9.90
2022-10-22T06:12:52.404Z,10.00
2022-10-22T06:17:55.524Z,9.90
2022-10-22T06:22:59.415Z,9.90
2022-10-22T06:28:02.697Z,9.90
2022-10-22T06:33:05.895Z,10.00
2022-10-22T06:38:09.215Z,10.00
2022-10-22T06:43:13.752Z,10.10
2022-10-22T06:48:16.872Z,10.20
2022-10-22T06:53:22.893Z,10.30
2022-10-22T06:58:26.642Z,10.30
2022-10-22T07:03:30.126Z,10.40
2022-10-22T07:08:34.753Z,10.40
2022-10-22T07:13:38.305Z,10.50
2022-10-22T07:18:43.035Z,10.50
2022-10-22T07:23:47.124Z,10.60
2022-10-22T07:28:50.536Z,10.60
2022-10-22T07:33:53.964Z,10.70
2022-10-22T07:38:59.265Z,10.70
2022-10-22T07:44:02.674Z,10.80
2022-10-22T07:49:06.214Z,11.00
2022-10-22T07:54:09.871Z,11.10
2022-10-22T07:59:13.361Z,11.30
2022-10-22T08:04:17.246Z,11.40
2022-10-22T08:09:20.895Z,11.50
2022-10-22T08:14:24.614Z,11.60
2022-10-22T08:19:29.295Z,11.80
2022-10-22T08:24:32.365Z,11.90
2022-10-22T08:29:35.932Z,12.10
2022-10-22T08:34:39.292Z,12.20
2022-10-22T08:39:42.734Z,12.20
2022-10-22T08:44:51.924Z,12.30
2022-10-22T08:49:57.660Z,12.40
2022-10-22T08:55:09.824Z,12.40
2022-10-22T09:00:16.205Z,12.40
2022-10-22T09:05:44.520Z,12.50
2022-10-22T09:11:00.724Z,12.60
2022-10-22T09:16:44.104Z,12.70
2022-10-22T09:22:25.910Z,12.80
2022-10-22T09:27:32.928Z,12.90
2022-10-22T09:32:36.785Z,12.90
2022-10-22T09:37:51.312Z,13.10
2022-10-22T09:42:55.608Z,13.20
2022-10-22T09:48:19.481Z,13.30
2022-10-22T09:53:38.163Z,13.30
2022-10-22T09:58:49.854Z,13.40
2022-10-22T10:03:54.024Z,13.40
2022-10-22T10:08:57.649Z,13.40
2022-10-22T10:14:06.993Z,13.40
2022-10-22T10:19:20.584Z,13.40
2022-10-22T10:24:42.042Z,13.40
2022-10-22T10:30:21.274Z,13.40
2022-10-22T10:35:57.273Z,13.40
2022-10-22T10:41:15.642Z,13.40
2022-10-22T10:46:43.994Z,13.30
2022-10-22T10:51:55.518Z,13.30
2022-10-22T10:57:01.727Z,13.30
2022-10-22T11:02:20.384Z,13.40
2022-10-22T11:07:39.635Z,13.40
2022-10-22T11:12:49.444Z,13.30
2022-10-22T11:17:56.626Z,13.30
2022-10-22T11:23:24.919Z,13.30
2022-10-22T11:28:50.664Z,13.30
2022-10-22T11:34:15.218Z,13.40
2022-10-22T11:39:36.025Z,13.30
2022-10-22T11:45:01.158Z,13.30
2022-10-22T11:50:44.474Z,13.30
2022-10-22T11:55:54.370Z,13.30
2022-10-22T12:01:12.625Z,13.30
2022-10-22T12:06:16.113Z,13.20
2022-10-22T12:11:48.005Z,13.30
2022-10-22T12:17:08.844Z,13.30
2022-10-22T12:22:23.935Z,13.30
2022-10-22T12:27:35.545Z,13.30
2022-10-22T12:32:42.125Z,13.30
2022-10-22T12:37:49.432Z,13.30
2022-10-22T12:43:20.135Z,13.40
2022-10-22T12:48:27.434Z,13.40
2022-10-22T12:53:52.566Z,13.40
2022-10-22T12:59:16.954Z,13.40
2022-10-22T13:04:32.365Z,13.40
2022-10-22T13:09:41.574Z,13.50
2022-10-22T13:14:46.964Z,13.50
2022-10-22T13:19:55.184Z,13.50
2022-10-22T13:25:14.166Z,13.50
2022-10-22T13:36:53.592Z,13.50
2022-10-22T13:41:56.802Z,13.50
2022-10-22T13:46:59.948Z,13.50
2022-10-22T13:52:03.024Z,13.50
2022-10-22T13:57:09.894Z,13.40
2022-10-22T14:02:13.683Z,13.40
2022-10-22T14:07:17.262Z,13.40
2022-10-22T14:12:20.973Z,13.40
2022-10-22T14:17:24.334Z,13.40
2022-10-22T14:22:29.620Z,13.40
2022-10-22T14:27:33.233Z,13.30
2022-10-22T14:32:36.753Z,13.40
2022-10-22T14:37:40.674Z,13.40
2022-10-22T14:42:46.894Z,13.30
2022-10-22T14:47:51.424Z,13.30
2022-10-22T14:52:54.915Z,13.30
2022-10-22T14:57:58.457Z,13.30
2022-10-22T15:03:03.497Z,13.30
2022-10-22T15:08:07.821Z,13.30
2022-10-22T15:13:11.274Z,13.30
2022-10-22T15:18:15.394Z,13.20
2022-10-22T15:23:19.085Z,13.30
2022-10-22T15:28:22.940Z,13.30
2022-10-22T15:33:27.344Z,13.20
2022-10-22T15:38:31.076Z,13.20
2022-10-22T15:43:35.764Z,13.20
2022-10-22T15:48:39.675Z,13.20
2022-10-22T15:53:43.854Z,13.10
2022-10-22T15:58:47.036Z,13.10
2022-10-22T16:04:00.654Z,13.10
2022-10-22T16:09:07.867Z,13.10
2022-10-22T16:14:13.728Z,13.10
2022-10-22T16:19:18.630Z,13.10
2022-10-22T16:24:23.108Z,13.10
2022-10-22T16:29:29.354Z,13.10
2022-10-22T16:34:34.229Z,13.10
2022-10-22T16:39:39.225Z,13.10
2022-10-22T16:44:44.412Z,13.10
2022-10-22T16:49:48.229Z,13.10
2022-10-22T16:54:54.025Z,13.10
2022-10-22T17:00:01.160Z,13.10
2022-10-22T17:05:06.014Z,13.10
2022-10-22T17:10:10.890Z,13.10
2022-10-22T17:15:14.874Z,13.10
2022-10-22T17:20:19.812Z,13.10
2022-10-22T17:25:47.895Z,13.20
2022-10-22T17:31:08.604Z,13.20
2022-10-22T17:36:14.315Z,13.20
2022-10-22T17:41:22.008Z,13.20
2022-10-22T17:46:29.843Z,13.20
2022-10-22T17:51:34.572Z,13.20
2022-10-22T17:56:40.695Z,13.20
2022-10-22T18:01:46.164Z,13.20
2022-10-22T18:06:50.171Z,13.30
2022-10-22T18:11:57.830Z,13.20
2022-10-22T18:17:07.459Z,13.20
2022-10-22T18:22:18.958Z,13.20
2022-10-22T18:27:30.392Z,13.20
2022-10-22T18:32:36.241Z,13.20
2022-10-22T18:37:41.058Z,13.20
2022-10-22T18:42:45.818Z,13.30
2022-10-22T18:47:52.422Z,13.20
2022-10-22T18:52:58.281Z,13.20
2022-10-22T18:58:03.010Z,13.20
2022-10-22T19:03:07.161Z,13.20
2022-10-22T19:08:14.770Z,13.20
2022-10-22T19:13:26.570Z,13.20
2022-10-22T19:18:32.910Z,13.20
2022-10-22T19:23:37.510Z,13.20
2022-10-22T19:28:43.070Z,13.20
2022-10-22T19:33:48.643Z,13.20
2022-10-22T19:38:53.151Z,13.20
2022-10-22T19:43:59.230Z,13.20
2022-10-22T19:49:07.663Z,13.30
2022-10-22T19:54:19.532Z,13.30
2022-10-22T19:59:32.360Z,13.30
2022-10-22T20:04:37.102Z,13.30
2022-10-22T20:09:41.831Z,13.40
2022-10-22T20:14:46.182Z,13.40
2022-10-22T20:19:49.823Z,13.40
2022-10-22T20:24:54.177Z,13.40
2022-10-22T20:29:58.211Z,13.40
2022-10-22T20:35:03.491Z,13.50
2022-10-22T20:40:08.741Z,13.50
2022-10-22T20:45:12.411Z,13.50
2022-10-22T20:50:16.083Z,13.50
2022-10-22T20:55:21.890Z,13.50
2022-10-22T21:00:25.270Z,13.50
2022-10-22T21:05:28.722Z,13.50
2022-10-22T21:10:32.954Z,13.50
2022-10-22T21:15:36.010Z,13.50
2022-10-22T21:20:42.319Z,13.50
2022-10-22T21:25:55.290Z,13.60
2022-10-22T21:30:59.371Z,13.50
2022-10-22T21:36:03.216Z,13.50
2022-10-22T21:41:13.191Z,13.50
2022-10-22T21:46:21.015Z,13.60
2022-10-22T21:51:26.089Z,13.50
2022-10-22T21:56:35.291Z,13.50
2022-10-22T22:01:39.390Z,13.50
2022-10-22T22:06:43.381Z,13.50
2022-10-22T22:11:46.947Z,13.40
2022-10-22T22:16:50.351Z,13.50
2022-10-22T22:21:53.690Z,13.40
2022-10-22T22:26:57.057Z,13.40
2022-10-22T22:32:00.062Z,13.30
2022-10-22T22:37:03.110Z,13.20
2022-10-22T22:42:06.561Z,13.10
2022-10-22T22:47:09.801Z,13.10
2022-10-22T22:52:12.799Z,13.00
2022-10-22T22:57:16.231Z,13.00
2022-10-22T23:02:19.771Z,12.80
2022-10-22T23:07:23.072Z,12.70
2022-10-22T23:12:26.730Z,12.60
2022-10-22T23:17:29.950Z,12.50
2022-10-22T23:22:32.871Z,12.50
2022-10-22T23:27:35.993Z,12.40
2022-10-22T23:32:39.221Z,12.40
2022-10-22T23:37:42.503Z,12.40
2022-10-22T23:42:45.876Z,12.40
2022-10-22T23:47:48.943Z,12.50
2022-10-22T23:52:52.331Z,12.50
2022-10-22T23:57:55.839Z,12.50
